createdAt,value
2022-09-09T00:00:00.752Z,15.53
2022-09-09T00:01:22.073Z,15.53
2022-09-09T00:02:28.686Z,15.53
2022-09-09T00:03:39.712Z,15.53
2022-09-09T00:04:42.331Z,15.53
2022-09-09T00:05:54.687Z,15.53
2022-09-09T00:07:18.283Z,15.55
2022-09-09T00:08:21.879Z,15.48
2022-09-09T00:09:27.294Z,15.46
2022-09-09T00:10:30.634Z,15.46
2022-09-09T00:11:38.020Z,15.45
2022-09-09T00:12:50.364Z,15.46
2022-09-09T00:13:55.010Z,15.42
2022-09-09T00:15:00.593Z,15.44
2022-09-09T00:16:09.244Z,15.43
2022-09-09T00:17:16.545Z,15.40
2022-09-09T00:18:18.266Z,15.38
2022-09-09T00:19:32.704Z,15.38
2022-09-09T00:20:44.951Z,15.37
2022-09-09T00:22:09.997Z,15.38
2022-09-09T00:23:12.019Z,15.35
2022-09-09T00:24:26.870Z,15.36
2022-09-09T00:25:36.189Z,15.39
2022-09-09T00:26:48.527Z,15.42
2022-09-09T00:27:51.842Z,15.38
2022-09-09T00:29:01.925Z,15.37
2022-09-09T00:30:24.276Z,15.28
2022-09-09T00:31:30.478Z,15.25
2022-09-09T00:32:36.949Z,15.19
2022-09-09T00:33:39.899Z,15.19
2022-09-09T00:35:03.795Z,15.19
2022-09-09T00:36:10.950Z,15.20
2022-09-09T00:37:12.853Z,15.23
2022-09-09T00:38:26.467Z,15.24
2022-09-09T00:39:38.688Z,15.24
2022-09-09T00:40:53.300Z,15.23
2022-09-09T00:42:05.338Z,15.24
2022-09-09T00:43:22.570Z,15.20
2022-09-09T00:44:24.365Z,15.19
2022-09-09T00:45:32.823Z,15.22
2022-09-09T00:46:34.722Z,15.26
2022-09-09T00:47:36.740Z,15.27
2022-09-09T00:48:44.794Z,15.27
2022-09-09T00:49:49.670Z,15.29
2022-09-09T00:50:59.622Z,15.32
2022-09-09T00:52:24.036Z,15.28
2022-09-09T00:53:32.909Z,15.25
2022-09-09T00:54:53.317Z,15.27
2022-09-09T00:56:00.523Z,15.27
2022-09-09T00:57:12.790Z,15.30
2022-09-09T00:58:14.854Z,15.32
2022-09-09T00:59:37.472Z,15.31
2022-09-09T01:00:43.218Z,15.29
2022-09-09T01:01:45.771Z,15.30
2022-09-09T01:02:50.534Z,15.31
2022-09-09T01:03:56.039Z,15.34
2022-09-09T01:05:07.316Z,15.35
2022-09-09T01:06:27.885Z,15.34
2022-09-09T01:07:29.760Z,15.33
2022-09-09T01:08:40.889Z,15.27
2022-09-09T01:09:43.650Z,15.26
2022-09-09T01:10:54.734Z,15.26
2022-09-09T01:12:02.469Z,15.28
2022-09-09T01:13:06.878Z,15.29
2022-09-09T01:14:20.518Z,15.29
2022-09-09T01:15:25.831Z,15.28
2022-09-09T01:16:29.205Z,15.24
2022-09-09T01:17:48.117Z,15.25
2022-09-09T01:18:54.272Z,15.26
2022-09-09T01:19:59.060Z,15.28
2022-09-09T01:21:09.092Z,15.28
2022-09-09T01:22:30.391Z,15.29
2022-09-09T01:23:39.858Z,15.31
2022-09-09T01:25:11.057Z,15.32
2022-09-09T01:26:39.215Z,15.31
2022-09-09T01:27:43.207Z,15.30
2022-09-09T01:28:46.808Z,15.27
2022-09-09T01:29:49.009Z,15.26
2022-09-09T01:30:50.959Z,15.28
2022-09-09T01:31:59.725Z,15.26
2022-09-09T01:33:03.012Z,15.27
2022-09-09T01:34:10.651Z,15.27
2022-09-09T01:35:28.923Z,15.27
2022-09-09T01:36:34.793Z,15.30
2022-09-09T01:37:36.614Z,15.34
2022-09-09T01:38:38.474Z,15.32
2022-09-09T01:39:42.418Z,15.33
2022-09-09T01:40:44.573Z,15.34
2022-09-09T01:41:46.439Z,15.34
2022-09-09T01:42:48.288Z,15.32
2022-09-09T01:43:50.559Z,15.34
2022-09-09T01:44:52.405Z,15.33
2022-09-09T01:45:56.025Z,15.32
2022-09-09T01:46:58.026Z,15.32
2022-09-09T01:48:00.896Z,15.32
2022-09-09T01:49:05.203Z,15.32
2022-09-09T01:50:09.488Z,15.31
2022-09-09T01:51:14.136Z,15.28
2022-09-09T01:52:16.032Z,15.27
2022-09-09T01:53:18.884Z,15.29
2022-09-09T01:54:22.032Z,15.31
2022-09-09T01:55:34.706Z,15.26
2022-09-09T01:56:48.413Z,15.24
2022-09-09T01:57:56.377Z,15.27
2022-09-09T01:59:04.132Z,15.29
2022-09-09T02:00:11.525Z,15.28
2022-09-09T02:01:29.717Z,15.25
2022-09-09T02:02:37.961Z,15.27
2022-09-09T02:03:40.715Z,15.25
2022-09-09T02:04:44.498Z,15.27
2022-09-09T02:05:52.378Z,15.27
2022-09-09T02:06:57.127Z,15.29
2022-09-09T02:08:09.946Z,15.30
2022-09-09T02:09:14.252Z,15.28
2022-09-09T02:10:22.855Z,15.25
2022-09-09T02:11:25.919Z,15.26
2022-09-09T02:12:29.149Z,15.26
2022-09-09T02:13:33.999Z,15.26
2022-09-09T02:14:42.412Z,15.27
2022-09-09T02:15:48.942Z,15.27
2022-09-09T02:16:58.646Z,15.27
2022-09-09T02:18:03.351Z,15.29
2022-09-09T02:19:27.034Z,15.30
2022-09-09T02:20:34.978Z,15.30
2022-09-09T02:21:37.998Z,15.31
2022-09-09T02:22:41.520Z,15.30
2022-09-09T02:23:44.212Z,15.26
2022-09-09T02:24:47.472Z,15.28
2022-09-09T02:25:53.210Z,15.25
2022-09-09T02:26:56.726Z,15.21
2022-09-09T02:28:01.452Z,15.23
2022-09-09T02:29:05.957Z,15.21
2022-09-09T02:30:08.366Z,15.16
2022-09-09T02:31:10.487Z,15.13
2022-09-09T02:32:17.451Z,15.14
2022-09-09T02:33:19.632Z,15.17
2022-09-09T02:34:22.871Z,15.18
2022-09-09T02:35:27.817Z,15.18
2022-09-09T02:36:32.239Z,15.16
2022-09-09T02:37:38.035Z,15.11
2022-09-09T02:38:44.096Z,15.13
2022-09-09T02:39:46.052Z,15.09
2022-09-09T02:40:48.016Z,15.11
2022-09-09T02:41:49.986Z,15.05
2022-09-09T02:42:51.850Z,15.05
2022-09-09T02:43:53.671Z,15.06
2022-09-09T02:44:55.568Z,15.08
2022-09-09T02:46:06.277Z,15.10
2022-09-09T02:47:16.962Z,15.12
2022-09-09T02:48:27.453Z,15.12
2022-09-09T02:49:59.098Z,15.10
2022-09-09T02:51:07.878Z,15.03
2022-09-09T02:52:13.165Z,15.00
2022-09-09T02:53:19.286Z,14.99
2022-09-09T02:54:32.442Z,14.99
2022-09-09T02:55:43.773Z,14.98
2022-09-09T02:56:51.217Z,14.98
2022-09-09T02:57:53.891Z,14.98
2022-09-09T02:58:55.713Z,14.98
2022-09-09T03:00:00.296Z,14.97
2022-09-09T03:01:04.228Z,14.96
2022-09-09T03:02:06.125Z,14.93
2022-09-09T03:03:10.073Z,14.92
2022-09-09T03:04:11.827Z,14.88
2022-09-09T03:05:14.344Z,14.85
2022-09-09T03:06:16.248Z,14.88
2022-09-09T03:07:18.349Z,14.90
2022-09-09T03:08:20.220Z,14.91
2022-09-09T03:09:22.098Z,14.95
2022-09-09T03:10:24.591Z,14.98
2022-09-09T03:11:26.523Z,15.00
2022-09-09T03:12:28.382Z,15.01
2022-09-09T03:13:30.318Z,14.99
2022-09-09T03:14:32.418Z,15.00
2022-09-09T03:15:34.786Z,14.97
2022-09-09T03:16:36.638Z,14.95
2022-09-09T03:17:38.872Z,14.96
2022-09-09T03:18:40.672Z,14.97
2022-09-09T03:19:42.472Z,14.98
2022-09-09T03:20:44.330Z,14.98
2022-09-09T03:21:47.126Z,14.98
2022-09-09T03:22:48.966Z,14.98
2022-09-09T03:23:50.717Z,14.97
2022-09-09T03:24:52.975Z,14.96
2022-09-09T03:25:58.081Z,14.94
2022-09-09T03:27:00.087Z,14.94
2022-09-09T03:28:01.999Z,14.91
2022-09-09T03:29:03.925Z,14.92
2022-09-09T03:30:06.320Z,14.92
2022-09-09T03:31:12.012Z,14.91
2022-09-09T03:32:14.461Z,14.92
2022-09-09T03:33:17.515Z,14.94
2022-09-09T03:34:19.323Z,14.96
2022-09-09T03:35:21.195Z,14.99
2022-09-09T03:36:22.967Z,15.02
2022-09-09T03:37:24.925Z,14.99
2022-09-09T03:38:26.778Z,14.98
2022-09-09T03:39:28.576Z,14.98
2022-09-09T03:40:30.327Z,15.00
2022-09-09T03:41:32.537Z,15.02
2022-09-09T03:42:34.350Z,14.98
2022-09-09T03:43:36.205Z,14.98
2022-09-09T03:44:38.197Z,14.96
2022-09-09T03:45:40.082Z,14.95
2022-09-09T03:46:42.025Z,14.95
2022-09-09T03:47:43.855Z,14.99
2022-09-09T03:48:45.642Z,14.98
2022-09-09T03:49:47.908Z,14.93
2022-09-09T03:50:51.006Z,14.94
2022-09-09T03:51:52.817Z,14.96
2022-09-09T03:52:54.698Z,14.98
2022-09-09T03:53:58.100Z,14.99
2022-09-09T03:54:59.898Z,15.00
2022-09-09T03:56:01.923Z,15.00
2022-09-09T03:57:03.964Z,14.97
2022-09-09T03:58:06.334Z,14.98
2022-09-09T03:59:09.883Z,14.94
2022-09-09T04:00:11.878Z,14.94
2022-09-09T04:01:15.345Z,14.95
2022-09-09T04:02:17.235Z,14.95
2022-09-09T04:03:19.304Z,14.91
2022-09-09T04:04:21.349Z,14.90
2022-09-09T04:05:23.176Z,14.88
2022-09-09T04:06:25.932Z,14.89
2022-09-09T04:07:29.365Z,14.91
2022-09-09T04:08:34.460Z,14.91
2022-09-09T04:09:36.216Z,14.90
2022-09-09T04:10:38.433Z,14.87
2022-09-09T04:11:40.209Z,14.87
2022-09-09T04:12:44.866Z,14.88
2022-09-09T04:13:48.575Z,14.87
2022-09-09T04:14:50.443Z,14.86
2022-09-09T04:15:56.871Z,14.88
2022-09-09T04:17:00.732Z,14.91
2022-09-09T04:18:02.537Z,14.93
2022-09-09T04:19:05.605Z,14.94
2022-09-09T04:20:09.719Z,14.93
2022-09-09T04:21:13.098Z,14.93
2022-09-09T04:22:14.935Z,14.94
2022-09-09T04:23:17.342Z,14.93
2022-09-09T04:24:19.212Z,14.93
2022-09-09T04:25:21.055Z,14.95
2022-09-09T04:26:23.177Z,14.96
2022-09-09T04:27:25.053Z,14.91
2022-09-09T04:28:28.002Z,14.88
2022-09-09T04:29:29.860Z,14.88
2022-09-09T04:30:31.610Z,14.84
2022-09-09T04:31:33.465Z,14.82
2022-09-09T04:32:35.424Z,14.78
2022-09-09T04:33:40.286Z,14.77
2022-09-09T04:34:42.982Z,14.77
2022-09-09T04:35:49.058Z,14.79
2022-09-09T04:36:52.876Z,14.78
2022-09-09T04:37:54.656Z,14.78
2022-09-09T04:38:56.520Z,14.77
2022-09-09T04:39:58.539Z,14.76
2022-09-09T04:41:00.470Z,14.75
2022-09-09T04:42:03.191Z,14.76
2022-09-09T04:43:06.067Z,14.76
2022-09-09T04:44:08.000Z,14.77
2022-09-09T04:45:12.382Z,14.79
2022-09-09T04:46:14.336Z,14.79
2022-09-09T04:47:16.309Z,14.78
2022-09-09T04:48:18.275Z,14.77
2022-09-09T04:49:20.126Z,14.75
2022-09-09T04:50:22.097Z,14.79
2022-09-09T04:51:23.976Z,14.83
2022-09-09T04:52:25.783Z,14.81
2022-09-09T04:53:28.314Z,14.78
2022-09-09T04:54:30.219Z,14.75
2022-09-09T04:55:32.506Z,14.76
2022-09-09T04:56:34.329Z,14.75
2022-09-09T04:57:36.167Z,14.76
2022-09-09T04:58:38.612Z,14.75
2022-09-09T04:59:40.681Z,14.71
2022-09-09T05:00:43.675Z,14.72
2022-09-09T05:01:45.636Z,14.73
2022-09-09T05:02:48.951Z,14.76
2022-09-09T05:03:50.922Z,14.74
2022-09-09T05:04:52.787Z,14.78
2022-09-09T05:05:54.595Z,14.78
2022-09-09T05:06:57.033Z,14.82
2022-09-09T05:08:05.979Z,14.83
2022-09-09T05:09:07.815Z,14.85
2022-09-09T05:10:09.829Z,14.88
2022-09-09T05:11:18.977Z,14.88
2022-09-09T05:12:20.843Z,14.90
2022-09-09T05:13:24.169Z,14.91
2022-09-09T05:14:25.846Z,14.93
2022-09-09T05:15:27.602Z,14.92
2022-09-09T05:16:29.715Z,14.90
2022-09-09T05:17:31.669Z,14.92
2022-09-09T05:18:33.479Z,14.90
2022-09-09T05:19:35.371Z,14.91
2022-09-09T05:20:37.817Z,14.89
2022-09-09T05:21:39.674Z,14.83
2022-09-09T05:22:41.741Z,14.85
2022-09-09T05:23:43.715Z,14.87
2022-09-09T05:24:45.503Z,14.90
2022-09-09T05:25:56.721Z,14.94
2022-09-09T05:27:00.492Z,14.96
2022-09-09T05:28:02.551Z,14.93
2022-09-09T05:29:04.477Z,14.91
2022-09-09T05:30:06.516Z,14.92
2022-09-09T05:31:09.621Z,14.95
2022-09-09T05:32:15.400Z,14.96
2022-09-09T05:33:17.480Z,15.02
2022-09-09T05:34:19.318Z,15.05
2022-09-09T05:35:21.970Z,15.09
2022-09-09T05:36:24.691Z,15.09
2022-09-09T05:37:27.485Z,15.11
2022-09-09T05:38:30.263Z,15.11
2022-09-09T05:39:32.374Z,15.14
2022-09-09T05:40:34.117Z,15.14
2022-09-09T05:41:36.800Z,15.16
2022-09-09T05:42:38.693Z,15.20
2022-09-09T05:43:40.502Z,15.22
2022-09-09T05:46:17.605Z,15.25
2022-09-09T05:47:19.355Z,15.30
2022-09-09T05:48:21.316Z,15.29
2022-09-09T05:49:23.076Z,15.29
2022-09-09T05:50:26.745Z,15.30
2022-09-09T05:51:31.644Z,15.28
2022-09-09T05:52:33.998Z,15.29
2022-09-09T05:53:35.871Z,15.27
2022-09-09T05:54:38.773Z,15.25
2022-09-09T05:55:40.634Z,15.25
2022-09-09T05:56:42.746Z,15.23
2022-09-09T05:57:49.300Z,15.26
2022-09-09T05:58:51.192Z,15.25
2022-09-09T05:59:52.995Z,15.25
2022-09-09T06:01:02.079Z,15.26
2022-09-09T06:02:04.121Z,15.29
2022-09-09T06:03:06.286Z,15.30
2022-09-09T06:04:08.685Z,15.28
2022-09-09T06:05:11.983Z,15.31
2022-09-09T06:06:15.675Z,15.30
2022-09-09T06:07:18.006Z,15.28
2022-09-09T06:08:19.771Z,15.31
2022-09-09T06:09:21.656Z,15.32
2022-09-09T06:10:23.575Z,15.34
2022-09-09T06:11:27.678Z,15.33
2022-09-09T06:12:29.492Z,15.35
2022-09-09T06:13:31.677Z,15.36
2022-09-09T06:14:33.531Z,15.37
2022-09-09T06:15:35.430Z,15.38
2022-09-09T06:16:39.021Z,15.40
2022-09-09T06:17:42.802Z,15.41
2022-09-09T06:18:45.096Z,15.42
2022-09-09T06:19:46.849Z,15.32
2022-09-09T06:20:55.757Z,15.27
2022-09-09T06:21:57.565Z,15.29
2022-09-09T06:22:59.328Z,15.32
2022-09-09T06:24:01.517Z,15.35
2022-09-09T06:25:03.376Z,15.36
2022-09-09T06:26:07.174Z,15.39
2022-09-09T06:27:09.009Z,15.43
2022-09-09T06:28:10.969Z,15.45
2022-09-09T06:29:12.852Z,15.43
2022-09-09T06:30:15.005Z,15.43
2022-09-09T06:31:18.742Z,15.45
2022-09-09T06:32:20.673Z,15.44
2022-09-09T06:33:22.423Z,15.44
2022-09-09T06:34:24.570Z,15.47
2022-09-09T06:35:26.482Z,15.48
2022-09-09T06:36:32.345Z,15.47
2022-09-09T06:37:34.204Z,15.45
2022-09-09T06:38:36.241Z,15.45
2022-09-09T06:39:38.285Z,15.46
2022-09-09T06:40:41.142Z,15.44
2022-09-09T06:41:43.985Z,15.43
2022-09-09T06:42:46.190Z,15.42
2022-09-09T06:43:48.451Z,15.44
2022-09-09T06:44:50.209Z,15.47
2022-09-09T06:45:57.905Z,15.48
2022-09-09T06:46:59.832Z,15.45
2022-09-09T06:48:01.648Z,15.43
2022-09-09T06:49:04.046Z,15.41
2022-09-09T06:50:07.426Z,15.38
2022-09-09T06:51:09.236Z,15.37
2022-09-09T06:52:11.114Z,15.37
2022-09-09T06:53:12.940Z,15.37
2022-09-09T06:54:14.672Z,15.40
2022-09-09T06:55:17.313Z,15.43
2022-09-09T06:56:19.090Z,15.45
2022-09-09T06:57:36.302Z,15.43
2022-09-09T06:58:45.391Z,15.44
2022-09-09T06:59:47.218Z,15.40
2022-09-09T07:00:49.378Z,15.36
2022-09-09T07:01:55.866Z,15.38
2022-09-09T07:02:58.007Z,15.42
2022-09-09T07:04:00.574Z,15.37
2022-09-09T07:05:02.358Z,15.35
2022-09-09T07:06:05.443Z,15.36
2022-09-09T07:07:07.638Z,15.36
2022-09-09T07:08:09.922Z,15.34
2022-09-09T07:09:13.053Z,15.34
2022-09-09T07:10:14.907Z,15.35
2022-09-09T07:11:16.702Z,15.37
2022-09-09T07:12:18.438Z,15.39
2022-09-09T07:13:22.274Z,15.43
2022-09-09T07:14:24.057Z,15.45
2022-09-09T07:15:26.457Z,15.45
2022-09-09T07:16:33.052Z,15.44
2022-09-09T07:17:34.832Z,15.47
2022-09-09T07:18:36.837Z,15.47
2022-09-09T07:19:38.843Z,15.46
2022-09-09T07:20:40.702Z,15.49
2022-09-09T07:21:42.999Z,15.51
2022-09-09T07:22:44.820Z,15.56
2022-09-09T07:23:46.617Z,15.59
2022-09-09T07:24:48.496Z,15.62
2022-09-09T07:25:50.974Z,15.67
2022-09-09T07:26:53.480Z,15.68
2022-09-09T07:27:56.372Z,15.71
2022-09-09T07:28:59.070Z,15.73
2022-09-09T07:30:00.937Z,15.74
2022-09-09T07:31:06.706Z,15.78
2022-09-09T07:32:08.702Z,15.83
2022-09-09T07:33:13.746Z,15.85
2022-09-09T07:34:15.508Z,15.86
2022-09-09T07:35:17.349Z,15.86
2022-09-09T07:36:39.262Z,15.88
2022-09-09T07:37:41.182Z,15.86
2022-09-09T07:38:47.211Z,15.89
2022-09-09T07:39:49.241Z,15.93
2022-09-09T07:40:51.099Z,15.95
2022-09-09T07:41:53.019Z,15.94
2022-09-09T07:42:55.011Z,15.96
2022-09-09T07:43:57.382Z,15.99
2022-09-09T07:44:59.224Z,16.02
2022-09-09T07:46:02.779Z,16.01
2022-09-09T07:47:04.675Z,16.02
2022-09-09T07:48:06.960Z,16.06
2022-09-09T07:49:08.874Z,16.09
2022-09-09T07:50:11.438Z,16.10
2022-09-09T07:51:18.209Z,16.12
2022-09-09T07:52:21.919Z,16.12
2022-09-09T07:53:24.378Z,16.16
2022-09-09T07:54:27.495Z,16.20
2022-09-09T07:55:29.471Z,16.18
2022-09-09T07:56:33.557Z,16.20
2022-09-09T07:57:35.765Z,16.21
2022-09-09T07:58:38.647Z,16.22
2022-09-09T07:59:40.545Z,16.24
2022-09-09T08:00:44.856Z,16.25
2022-09-09T08:01:48.736Z,16.28
2022-09-09T08:02:50.667Z,16.30
2022-09-09T08:04:00.525Z,16.34
2022-09-09T08:05:02.317Z,16.37
2022-09-09T08:06:05.268Z,16.39
2022-09-09T08:07:07.589Z,16.44
2022-09-09T08:08:10.352Z,16.49
2022-09-09T08:09:12.226Z,16.53
2022-09-09T08:10:16.006Z,16.55
2022-09-09T08:11:18.832Z,16.60
2022-09-09T08:12:20.768Z,16.63
2022-09-09T08:13:22.646Z,16.69
2022-09-09T08:14:24.578Z,16.72
2022-09-09T08:15:26.359Z,16.71
2022-09-09T08:16:29.467Z,16.74
2022-09-09T08:17:31.299Z,16.79
2022-09-09T08:18:33.319Z,16.82
2022-09-09T08:19:37.907Z,16.84
2022-09-09T08:20:39.776Z,16.86
2022-09-09T08:21:42.706Z,16.90
2022-09-09T08:22:44.901Z,16.89
2022-09-09T08:23:48.295Z,16.90
2022-09-09T08:24:50.123Z,16.88
2022-09-09T08:25:51.864Z,16.86
2022-09-09T08:26:55.119Z,16.86
2022-09-09T08:27:57.071Z,16.88
2022-09-09T08:29:00.148Z,16.91
2022-09-09T08:30:01.913Z,16.93
2022-09-09T08:31:08.188Z,16.94
2022-09-09T08:32:10.197Z,16.92
2022-09-09T08:33:11.941Z,16.93
2022-09-09T08:34:13.765Z,16.94
2022-09-09T08:35:15.759Z,16.92
2022-09-09T08:36:19.415Z,16.92
2022-09-09T08:37:21.701Z,16.94
2022-09-09T08:38:23.558Z,16.94
2022-09-09T08:39:25.570Z,16.88
2022-09-09T08:40:30.187Z,16.87
2022-09-09T08:41:50.440Z,16.89
2022-09-09T08:42:55.328Z,16.89
2022-09-09T08:44:04.003Z,16.89
2022-09-09T08:45:21.300Z,16.91
2022-09-09T08:46:30.519Z,16.90
2022-09-09T08:47:52.670Z,16.91
2022-09-09T08:48:57.880Z,16.93
2022-09-09T08:50:11.792Z,16.95
2022-09-09T08:51:15.060Z,16.97
2022-09-09T08:52:23.083Z,16.98
2022-09-09T08:53:27.646Z,16.97
2022-09-09T08:54:51.021Z,16.97
2022-09-09T08:55:56.919Z,16.98
2022-09-09T08:56:58.794Z,16.99
2022-09-09T08:58:03.116Z,17.00
2022-09-09T08:59:06.442Z,17.00
2022-09-09T09:00:11.690Z,17.06
2022-09-09T09:01:21.661Z,17.06
2022-09-09T09:02:29.503Z,17.07
2022-09-09T09:03:51.831Z,17.11
2022-09-09T09:05:00.381Z,17.10
2022-09-09T09:06:08.583Z,17.14
2022-09-09T09:07:22.476Z,17.18
2022-09-09T09:08:42.412Z,17.18
2022-09-09T09:09:44.981Z,17.20
2022-09-09T09:10:50.594Z,17.20
2022-09-09T09:12:02.069Z,17.20
2022-09-09T09:13:04.645Z,17.23
2022-09-09T09:14:26.693Z,17.26
2022-09-09T09:15:32.822Z,17.26
2022-09-09T09:16:39.930Z,17.28
2022-09-09T09:17:44.460Z,17.28
2022-09-09T09:18:46.252Z,17.27
2022-09-09T09:19:49.290Z,17.25
2022-09-09T09:21:00.139Z,17.21
2022-09-09T09:22:11.509Z,17.20
2022-09-09T09:23:33.542Z,17.20
2022-09-09T09:24:38.348Z,17.25
2022-09-09T09:25:42.713Z,17.28
2022-09-09T09:26:44.734Z,17.34
2022-09-09T09:28:01.871Z,17.38
2022-09-09T09:29:14.089Z,17.39
2022-09-09T09:30:26.805Z,17.42
2022-09-09T09:31:31.565Z,17.44
2022-09-09T09:32:36.286Z,17.43
2022-09-09T09:33:51.812Z,17.43
2022-09-09T09:34:57.387Z,17.44
2022-09-09T09:36:01.163Z,17.42
2022-09-09T09:37:06.286Z,17.43
2022-09-09T09:41:07.186Z,17.42
2022-09-09T09:42:16.366Z,17.43
2022-09-09T09:43:25.169Z,17.46
2022-09-09T09:44:31.249Z,17.48
2022-09-09T09:45:36.326Z,17.49
2022-09-09T09:46:38.887Z,17.50
2022-09-09T09:47:41.907Z,17.51
2022-09-09T09:48:43.752Z,17.52
2022-09-09T09:49:55.729Z,17.52
2022-09-09T09:51:02.545Z,17.57
2022-09-09T09:52:05.665Z,17.58
2022-09-09T09:53:07.770Z,17.61
2022-09-09T09:54:16.329Z,17.65
2022-09-09T09:55:18.180Z,17.67
2022-09-09T09:56:27.229Z,17.70
2022-09-09T09:57:31.221Z,17.73
2022-09-09T09:58:35.304Z,17.75
2022-09-09T09:59:39.998Z,17.78
2022-09-09T10:00:50.243Z,17.79
2022-09-09T10:01:52.162Z,17.81
2022-09-09T10:02:54.748Z,17.83
2022-09-09T10:04:00.312Z,17.84
2022-09-09T10:05:15.235Z,17.83
2022-09-09T10:06:17.052Z,17.84
2022-09-09T10:07:20.625Z,17.85
2022-09-09T10:08:25.263Z,17.85
2022-09-09T10:09:27.114Z,17.85
2022-09-09T10:10:36.520Z,17.85
2022-09-09T10:11:58.556Z,17.85
2022-09-09T10:13:19.844Z,17.86
2022-09-09T10:14:23.504Z,17.86
2022-09-09T10:15:31.341Z,17.87
2022-09-09T10:16:33.138Z,17.88
2022-09-09T10:17:34.845Z,17.88
2022-09-09T10:19:00.212Z,17.88
2022-09-09T10:20:11.218Z,17.87
2022-09-09T10:21:25.037Z,17.87
2022-09-09T10:22:33.873Z,17.87
2022-09-09T10:23:47.600Z,17.85
2022-09-09T10:24:55.535Z,17.84
2022-09-09T10:26:15.596Z,17.85
2022-09-09T10:27:36.083Z,17.86
2022-09-09T10:28:53.323Z,17.85
2022-09-09T10:30:03.761Z,17.87
2022-09-09T10:31:08.398Z,17.88
2022-09-09T10:32:30.983Z,17.88
2022-09-09T10:33:46.257Z,17.89
2022-09-09T10:34:51.321Z,17.89
2022-09-09T10:36:02.412Z,17.88
2022-09-09T10:37:12.810Z,17.88
2022-09-09T10:38:16.142Z,17.89
2022-09-09T10:39:40.622Z,17.87
2022-09-09T10:40:45.814Z,17.86
2022-09-09T10:42:05.282Z,17.84
2022-09-09T10:43:27.348Z,17.84
2022-09-09T10:44:37.125Z,17.82
2022-09-09T10:45:57.064Z,17.80
2022-09-09T10:47:17.563Z,17.79
2022-09-09T10:48:38.512Z,17.81
2022-09-09T10:49:40.323Z,17.83
2022-09-09T10:52:16.549Z,17.89
2022-09-09T10:53:34.470Z,17.90
2022-09-09T10:54:45.162Z,17.93
2022-09-09T10:55:50.322Z,17.95
2022-09-09T10:56:57.960Z,17.96
2022-09-09T10:58:01.876Z,17.97
2022-09-09T10:59:06.456Z,17.98
2022-09-09T11:00:16.032Z,17.99
2022-09-09T11:01:24.020Z,18.02
2022-09-09T11:02:30.553Z,18.03
2022-09-09T11:03:34.620Z,18.03
2022-09-09T11:04:40.960Z,18.04
2022-09-09T11:05:58.101Z,18.06
2022-09-09T11:07:07.468Z,18.09
2022-09-09T11:09:32.645Z,18.16
2022-09-09T11:10:41.648Z,18.18
2022-09-09T11:11:47.371Z,18.22
2022-09-09T11:12:51.761Z,18.24
2022-09-09T11:13:54.003Z,18.26
2022-09-09T11:15:00.988Z,18.26
2022-09-09T11:16:07.369Z,18.28
2022-09-09T11:17:15.478Z,18.27
2022-09-09T11:18:21.189Z,18.28
2022-09-09T11:19:28.162Z,18.29
2022-09-09T11:20:30.035Z,18.28
2022-09-09T11:21:35.664Z,18.23
2022-09-09T11:22:40.409Z,18.20
2022-09-09T11:23:45.029Z,18.19
2022-09-09T11:24:49.209Z,18.19
2022-09-09T11:25:58.196Z,18.21
2022-09-09T11:27:04.354Z,18.21
2022-09-09T11:28:30.266Z,18.21
2022-09-09T11:29:50.991Z,18.22
2022-09-09T11:31:13.042Z,18.22
2022-09-09T11:32:29.358Z,18.22
2022-09-09T11:33:58.673Z,18.24
2022-09-09T11:35:27.937Z,18.25
2022-09-09T11:36:50.661Z,18.24
2022-09-09T11:37:58.294Z,18.24
2022-09-09T11:39:11.243Z,18.23
2022-09-09T11:40:15.891Z,18.22
2022-09-09T11:41:21.604Z,18.19
2022-09-09T11:42:25.532Z,18.17
2022-09-09T11:43:27.336Z,18.17
2022-09-09T11:44:31.340Z,18.20
2022-09-09T11:45:35.327Z,18.21
2022-09-09T11:46:39.453Z,18.22
2022-09-09T11:47:41.308Z,18.23
2022-09-09T11:48:47.091Z,18.22
2022-09-09T11:49:49.826Z,18.23
2022-09-09T11:50:59.390Z,18.22
2022-09-09T11:52:12.318Z,18.21
2022-09-09T11:53:15.028Z,18.21
2022-09-09T11:54:33.405Z,18.21
2022-09-09T11:55:35.972Z,18.23
2022-09-09T11:56:47.311Z,18.23
2022-09-09T11:57:49.751Z,18.24
2022-09-09T11:58:59.575Z,18.24
2022-09-09T12:00:01.856Z,18.23
2022-09-09T12:01:14.052Z,18.21
2022-09-09T12:02:23.687Z,18.19
2022-09-09T12:03:31.608Z,18.19
2022-09-09T12:04:38.210Z,18.19
2022-09-09T12:05:47.078Z,18.21
2022-09-09T12:06:57.371Z,18.23
2022-09-09T12:08:00.151Z,18.24
2022-09-09T12:09:27.935Z,18.24
2022-09-09T12:10:34.267Z,18.25
2022-09-09T12:11:36.054Z,18.28
2022-09-09T12:12:43.205Z,18.27
2022-09-09T12:13:53.649Z,18.29
2022-09-09T12:14:58.495Z,18.29
2022-09-09T12:16:02.017Z,18.30
2022-09-09T12:17:23.953Z,18.32
2022-09-09T12:18:39.474Z,18.32
2022-09-09T12:19:41.516Z,18.33
2022-09-09T12:20:53.486Z,18.35
2022-09-09T12:21:58.184Z,18.35
2022-09-09T12:23:02.624Z,18.37
2022-09-09T12:24:09.487Z,18.38
2022-09-09T12:25:25.214Z,18.39
2022-09-09T12:26:41.216Z,18.39
2022-09-09T12:27:47.589Z,18.37
2022-09-09T12:28:52.231Z,18.36
2022-09-09T12:29:59.557Z,18.35
2022-09-09T12:31:24.684Z,18.35
2022-09-09T12:32:27.282Z,18.35
2022-09-09T12:33:36.348Z,18.36
2022-09-09T12:34:42.774Z,18.33
2022-09-09T12:35:46.324Z,18.31
2022-09-09T12:36:53.921Z,18.32
2022-09-09T12:37:59.332Z,18.32
2022-09-09T12:39:12.143Z,18.33
2022-09-09T12:40:17.260Z,18.31
2022-09-09T12:41:28.843Z,18.33
2022-09-09T12:42:30.754Z,18.32
2022-09-09T12:43:33.388Z,18.32
2022-09-09T12:44:35.248Z,18.31
2022-09-09T12:45:42.338Z,18.30
2022-09-09T12:46:46.254Z,18.32
2022-09-09T12:47:53.815Z,18.32
2022-09-09T12:48:56.681Z,18.32
2022-09-09T12:49:58.828Z,18.32
2022-09-09T12:51:01.711Z,18.31
2022-09-09T12:52:07.134Z,18.32
2022-09-09T12:53:11.666Z,18.31
2022-09-09T12:54:15.411Z,18.32
2022-09-09T12:55:26.461Z,18.33
2022-09-09T12:56:32.732Z,18.33
2022-09-09T12:57:37.659Z,18.32
2022-09-09T12:58:41.082Z,18.32
2022-09-09T12:59:44.019Z,18.34
2022-09-09T13:00:53.532Z,18.35
2022-09-09T13:01:59.429Z,18.35
2022-09-09T13:03:02.888Z,18.35
2022-09-09T13:04:20.926Z,18.33
2022-09-09T13:05:27.299Z,18.32
2022-09-09T13:06:30.262Z,18.33
2022-09-09T13:07:32.091Z,18.33
2022-09-09T13:08:34.999Z,18.31
2022-09-09T13:09:36.899Z,18.31
2022-09-09T13:11:01.837Z,18.30
2022-09-09T13:12:07.223Z,18.27
2022-09-09T13:13:28.571Z,18.29
2022-09-09T13:14:33.693Z,18.30
2022-09-09T13:15:35.485Z,18.31
2022-09-09T13:16:42.125Z,18.30
2022-09-09T13:17:50.632Z,18.28
2022-09-09T13:18:52.968Z,18.28
2022-09-09T13:19:54.935Z,18.26
2022-09-09T13:20:59.238Z,18.26
2022-09-09T13:22:01.125Z,18.26
2022-09-09T13:23:03.575Z,18.26
2022-09-09T13:24:08.726Z,18.27
2022-09-09T13:25:11.949Z,18.27
2022-09-09T13:26:34.003Z,18.26
2022-09-09T13:27:43.081Z,18.26
2022-09-09T13:28:46.624Z,18.25
2022-09-09T13:29:56.193Z,18.24
2022-09-09T13:31:03.262Z,18.23
2022-09-09T13:32:07.459Z,18.24
2022-09-09T13:33:18.627Z,18.23
2022-09-09T13:34:28.814Z,18.23
2022-09-09T13:35:31.053Z,18.24
2022-09-09T13:36:34.309Z,18.22
2022-09-09T13:37:37.504Z,18.23
2022-09-09T13:39:00.690Z,18.21
2022-09-09T13:40:03.918Z,18.24
2022-09-09T13:41:07.063Z,18.21
2022-09-09T13:42:23.827Z,18.19
2022-09-09T13:43:27.117Z,18.21
2022-09-09T13:44:30.434Z,18.21
2022-09-09T13:45:32.418Z,18.21
2022-09-09T13:46:38.564Z,18.21
2022-09-09T13:47:40.410Z,18.18
2022-09-09T13:48:42.318Z,18.12
2022-09-09T13:49:44.358Z,18.11
2022-09-09T13:50:54.992Z,18.09
2022-09-09T13:52:14.382Z,18.10
2022-09-09T13:53:16.499Z,18.08
2022-09-09T13:54:20.088Z,18.08
2022-09-09T13:55:23.247Z,18.10
2022-09-09T13:56:25.134Z,18.11
2022-09-09T13:57:26.967Z,18.13
2022-09-09T13:58:28.788Z,18.13
2022-09-09T13:59:48.027Z,18.13
2022-09-09T14:00:53.538Z,18.14
2022-09-09T14:01:55.262Z,18.15
2022-09-09T14:02:57.106Z,18.18
2022-09-09T14:04:00.231Z,18.19
2022-09-09T14:05:02.298Z,18.21
2022-09-09T14:06:04.085Z,18.22
2022-09-09T14:07:05.878Z,18.22
2022-09-09T14:08:08.649Z,18.22
2022-09-09T14:09:14.541Z,18.23
2022-09-09T14:10:16.671Z,18.23
2022-09-09T14:11:19.589Z,18.25
2022-09-09T14:12:21.386Z,18.27
2022-09-09T14:13:23.189Z,18.29
2022-09-09T14:14:26.574Z,18.31